Time;durP1;ratioP1;P1;durP2;ratioP2;P2;SDS_P1;SDS_P2;PMS_P1;PMS_P2;Temp;Humidity;BMP_temperature;BMP_pressure;BME280_temperature;BME280_humidity;BME280_pressure;Samples;Min_cycle;Max_cycle;Signal;HPM_P1;HPM_P2
2023/05/30 00:01:06;;;;;;;;;2.67;2.67;;;;;21.10;47.94;101842.88;5020260;28;45526;-78
2023/05/30 00:03:32;;;;;;;;;9.33;2.00;;;;;21.07;47.53;101847.41;5023887;28;46359;-77
2023/05/30 00:05:57;;;;;;;;;3.00;3.00;;;;;21.03;48.30;101842.97;5022049;28;47712;-79
2023/05/30 00:08:23;;;;;;;;;2.00;2.00;;;;;20.99;48.09;101844.84;5021458;28;64620;-78
2023/05/30 00:10:48;;;;;;;;;2.00;2.00;;;;;20.97;48.21;101851.13;5020804;28;45369;-78
2023/05/30 00:13:14;;;;;;;;;6.33;4.00;;;;;20.92;47.69;101844.03;5020883;28;45812;-77
2023/05/30 00:15:40;;;;;;;;;5.67;3.33;;;;;20.89;48.35;101848.59;5023984;28;68988;-79
2023/05/30 00:18:06;;;;;;;;;4.33;2.67;;;;;20.87;48.14;101845.00;5021313;28;45404;-79
2023/05/30 00:20:33;;;;;;;;;6.33;2.33;;;;;20.83;48.45;101846.88;5007085;28;45490;-78
2023/05/30 00:22:59;;;;;;;;;4.33;3.00;;;;;20.82;48.27;101852.25;5019651;28;45460;-77
2023/05/30 00:25:24;;;;;;;;;4.00;2.00;;;;;20.78;48.91;101850.56;5003209;28;47225;-79
2023/05/30 00:27:50;;;;;;;;;3.33;2.67;;;;;20.74;48.50;101860.44;5018978;28;45693;-78
2023/05/30 00:30:16;;;;;;;;;3.33;3.00;;;;;20.69;48.35;101856.03;5023679;28;45424;-78
2023/05/30 00:32:42;;;;;;;;;3.00;3.00;;;;;20.67;48.50;101865.00;5021547;28;45707;-77
2023/05/30 00:35:07;;;;;;;;;3.67;3.67;;;;;20.67;48.62;101866.81;5017475;28;58935;-78
2023/05/30 00:37:33;;;;;;;;;2.33;2.33;;;;;20.64;49.09;101866.84;5018375;28;45428;-77
2023/05/30 00:39:58;;;;;;;;;5.00;2.33;;;;;20.61;49.34;101858.81;5017789;28;45462;-77
2023/05/30 00:42:26;;;;;;;;;2.00;2.00;;;;;20.57;48.75;101867.84;5015354;28;60819;-76
2023/05/30 00:44:51;;;;;;;;;5.33;2.67;;;;;20.53;49.48;101860.75;5016936;28;46857;-76
2023/05/30 00:47:17;;;;;;;;;3.00;3.00;;;;;20.52;49.09;101858.97;5017161;28;56300;-77
2023/05/30 00:49:42;;;;;;;;;3.00;3.00;;;;;20.48;49.77;101857.22;5017529;28;45304;-76
2023/05/30 00:52:08;;;;;;;;;5.33;3.67;;;;;20.45;49.29;101852.75;4999816;28;62494;-76
2023/05/30 00:54:33;;;;;;;;;5.00;4.67;;;;;20.44;49.86;101855.47;5016386;28;47374;-77
2023/05/30 00:56:59;;;;;;;;;4.67;3.67;;;;;20.39;49.39;101853.72;5016520;28;64823;-78
2023/05/30 00:59:25;;;;;;;;;7.00;4.00;;;;;20.37;49.40;101849.28;5017712;28;45530;-78
2023/05/30 01:01:50;;;;;;;;;6.67;3.67;;;;;20.34;50.23;101855.56;5018061;28;45559;-77
2023/05/30 01:04:18;;;;;;;;;5.00;5.00;;;;;20.31;49.60;101850.25;5016465;28;66981;-77
2023/05/30 01:06:46;;;;;;;;;9.00;5.33;;;;;20.28;49.75;101852.97;5017923;28;45262;-77
2023/05/30 01:09:12;;;;;;;;;10.67;5.33;;;;;20.25;49.99;101844.97;4999918;28;45332;-78
2023/05/30 01:11:53;;;;;;;;;5.33;5.33;;;;;20.23;50.60;101848.56;5016868;28;62699;-77
2023/05/30 01:14:31;;;;;;;;;3.67;2.67;;;;;20.21;49.98;101853.97;4999082;28;46722;-78
2023/05/30 01:17:24;;;;;;;;;7.33;3.33;;;;;20.17;50.10;101848.66;4993975;28;45362;-78
2023/05/30 01:20:07;;;;;;;;;4.33;3.33;;;;;20.13;50.63;101854.06;5013599;28;45499;-77
2023/05/30 01:22:56;;;;;;;;;4.67;4.67;;;;;20.09;50.79;101849.66;4999868;28;45381;-77
2023/05/30 01:25:27;;;;;;;;;4.33;2.67;;;;;20.06;50.44;101849.66;4999313;28;47486;-77
2023/05/30 01:28:01;;;;;;;;;4.67;2.67;;;;;20.04;51.27;101855.97;4995079;28;45243;-76
2023/05/30 01:30:28;;;;;;;;;8.67;5.00;;;;;20.02;51.33;101863.13;5016161;28;45623;-77
2023/05/30 01:32:53;;;;;;;;;8.33;4.00;;;;;20.00;51.20;101859.59;4999278;28;45230;-78
2023/05/30 01:35:23;;;;;;;;;3.00;3.00;;;;;19.96;51.02;101855.16;5012404;28;70309;-77
2023/05/30 01:37:48;;;;;;;;;5.00;3.00;;;;;19.92;51.30;101861.44;4999188;28;45496;-78
2023/05/30 01:40:22;;;;;;;;;5.33;3.00;;;;;19.88;51.30;101865.97;5016394;28;45682;-77
2023/05/30 01:42:52;;;;;;;;;4.67;3.00;;;;;19.85;51.70;101872.25;5011354;28;45395;-78
2023/05/30 01:45:25;;;;;;;;;8.33;3.00;;;;;19.84;51.22;101870.47;5016300;28;46545;-77
2023/05/30 01:48:24;;;;;;;;;4.67;2.33;;;;;19.83;51.50;101875.88;4999017;28;45398;-77
2023/05/30 01:50:51;;;;;;;;;4.00;4.00;;;;;19.81;51.87;101866.94;4988170;28;45437;-78
2023/05/30 01:53:31;;;;;;;;;3.33;3.33;;;;;19.78;51.71;101867.88;4998507;28;45461;-77
2023/05/30 01:55:58;;;;;;;;;3.67;1.00;;;;;19.74;51.99;101858.06;4998961;28;47034;-77
2023/05/30 01:58:24;;;;;;;;;3.33;2.33;;;;;19.72;51.58;101862.56;5012983;28;45456;-78
2023/05/30 02:00:51;;;;;;;;;5.00;3.33;;;;;19.69;51.74;101867.06;4998931;28;45500;-78
2023/05/30 02:03:16;;;;;;;;;5.33;3.67;;;;;19.67;52.32;101867.09;5022266;28;45578;-78
2023/05/30 02:05:41;;;;;;;;;4.33;3.33;;;;;19.66;51.89;101869.78;5020883;28;46516;-76
2023/05/30 02:08:07;;;;;;;;;4.00;3.00;;;;;19.65;52.03;101862.63;5012107;28;67814;-77
2023/05/30 02:10:32;;;;;;;;;2.33;2.00;;;;;19.64;52.48;101875.16;5014919;28;57295;-78
2023/05/30 02:12:57;;;;;;;;;7.00;4.33;;;;;19.62;52.13;101874.28;5007807;28;62966;-77
2023/05/30 02:15:23;;;;;;;;;5.67;3.00;;;;;19.59;52.78;101885.03;5008576;28;67565;-77
2023/05/30 02:17:48;;;;;;;;;4.33;3.33;;;;;19.58;52.50;101880.53;5015263;28;62831;-78
2023/05/30 02:20:13;;;;;;;;;3.00;3.00;;;;;19.53;52.82;101877.00;5015842;28;45455;-78
2023/05/30 02:22:39;;;;;;;;;3.67;2.67;;;;;19.51;52.82;101871.69;5014850;28;61899;-78
2023/05/30 02:25:05;;;;;;;;;4.00;4.00;;;;;19.46;52.76;101870.84;5015780;28;47436;-78
2023/05/30 02:27:30;;;;;;;;;6.67;3.67;;;;;19.45;52.91;101876.22;5016209;28;45401;-77
2023/05/30 02:29:55;;;;;;;;;2.67;2.67;;;;;19.38;53.28;101878.91;5015395;28;62879;-77
2023/05/30 02:32:21;;;;;;;;;9.00;5.00;;;;;19.37;53.50;101873.59;5016166;28;59249;-79
2023/05/30 02:34:46;;;;;;;;;3.67;3.67;;;;;19.36;53.18;101879.84;5014816;28;69271;-77
2023/05/30 02:37:11;;;;;;;;;5.33;4.00;;;;;19.34;53.48;101873.63;5016310;28;49354;-78
2023/05/30 02:39:37;;;;;;;;;6.00;5.00;;;;;19.31;53.70;101863.81;5015054;28;47460;-77
2023/05/30 02:42:02;;;;;;;;;6.33;4.00;;;;;19.30;53.49;101870.06;5015428;28;56828;-78
2023/05/30 02:44:27;;;;;;;;;3.00;3.00;;;;;19.28;53.50;101873.66;5016130;28;46438;-77
2023/05/30 02:46:53;;;;;;;;;6.67;3.00;;;;;19.26;53.97;101862.97;5015347;28;65344;-77
2023/05/30 02:49:18;;;;;;;;;5.00;2.00;;;;;19.23;54.22;101863.00;5015253;28;58318;-77
2023/05/30 02:51:44;;;;;;;;;5.00;3.33;;;;;19.25;54.12;101868.34;5015935;28;45332;-79
2023/05/30 02:54:09;;;;;;;;;3.00;3.00;;;;;19.24;54.20;101877.28;5015871;28;46339;-78
2023/05/30 02:56:35;;;;;;;;;2.00;2.00;;;;;19.21;54.21;101880.84;5014941;28;45435;-78
2023/05/30 02:59:01;;;;;;;;;9.00;3.67;;;;;19.20;54.29;101881.75;5015814;28;45270;-78
2023/05/30 03:01:26;;;;;;;;;4.00;4.00;;;;;19.17;54.43;101875.53;5016251;28;45795;-77
2023/05/30 03:03:51;;;;;;;;;5.33;4.00;;;;;19.14;54.20;101879.13;5015286;28;68538;-77
2023/05/30 03:06:18;;;;;;;;;3.67;3.67;;;;;19.10;54.10;101883.63;5015341;28;45312;-78
2023/05/30 03:08:44;;;;;;;;;6.33;4.00;;;;;19.07;54.40;101875.63;5016139;28;45511;-77
2023/05/30 03:11:10;;;;;;;;;6.00;3.67;;;;;19.05;54.74;101881.88;4996880;28;45546;-77
2023/05/30 03:13:36;;;;;;;;;3.67;3.67;;;;;19.03;54.95;101878.34;5015465;28;45750;-78
2023/05/30 03:16:01;;;;;;;;;5.33;3.00;;;;;19.01;54.97;101875.63;5015109;28;63532;-78
2023/05/30 03:18:26;;;;;;;;;3.00;3.00;;;;;18.99;54.58;101877.44;5015487;28;45249;-77
2023/05/30 03:20:52;;;;;;;;;3.67;3.00;;;;;18.98;54.67;101874.78;5014828;28;59007;-77
2023/05/30 03:23:17;;;;;;;;;7.00;4.00;;;;;18.95;55.08;101875.69;5014559;28;63447;-77
2023/05/30 03:25:43;;;;;;;;;5.33;4.67;;;;;18.95;54.48;101870.34;5015463;28;45413;-78
2023/05/30 03:28:08;;;;;;;;;3.67;2.00;;;;;18.95;55.06;101874.81;5015322;28;45391;-77
2023/05/30 03:30:34;;;;;;;;;8.67;5.00;;;;;18.91;54.64;101873.03;5014611;28;60207;-78
2023/05/30 03:32:59;;;;;;;;;4.67;3.00;;;;;18.86;55.12;101875.78;5014879;28;46867;-77
2023/05/30 03:35:25;;;;;;;;;3.67;2.00;;;;;18.87;55.25;101882.00;5015523;28;45316;-78
2023/05/30 03:37:50;;;;;;;;;5.67;4.00;;;;;18.84;55.47;101886.47;5014342;28;60107;-78
2023/05/30 03:40:16;;;;;;;;;3.67;3.33;;;;;18.83;55.06;101889.16;5015269;28;45188;-77
2023/05/30 03:42:41;;;;;;;;;2.00;2.00;;;;;18.81;55.49;101888.28;5015295;28;46453;-78
2023/05/30 03:45:07;;;;;;;;;4.67;3.00;;;;;18.79;55.11;101887.41;5003766;28;45458;-77
2023/05/30 03:47:32;;;;;;;;;4.67;2.67;;;;;18.78;55.68;101889.19;5014425;28;45289;-78
2023/05/30 03:49:57;;;;;;;;;3.00;3.00;;;;;18.77;55.01;101887.41;5015017;28;50402;-78
2023/05/30 03:52:23;;;;;;;;;6.33;3.33;;;;;18.75;55.36;101891.91;5016175;28;45722;-77
2023/05/30 03:54:48;;;;;;;;;4.00;3.00;;;;;18.74;55.76;101894.56;5018006;28;69918;-78
2023/05/30 03:57:13;;;;;;;;;3.00;3.00;;;;;18.70;55.68;101899.06;4999559;28;63882;-77
2023/05/30 03:59:39;;;;;;;;;4.00;3.00;;;;;18.70;55.70;101904.41;5018332;28;55491;-77
2023/05/30 04:02:05;;;;;;;;;3.00;3.00;;;;;18.68;55.62;101906.19;5018518;28;46215;-78
2023/05/30 04:04:30;;;;;;;;;4.00;2.00;;;;;18.65;55.33;101902.63;5005675;28;45369;-77
2023/05/30 04:06:55;;;;;;;;;5.67;4.00;;;;;18.63;55.51;101909.75;5018303;28;62902;-78
2023/05/30 04:09:21;;;;;;;;;3.00;3.00;;;;;18.59;55.96;101903.53;5018386;28;49016;-78
2023/05/30 04:11:46;;;;;;;;;3.00;3.00;;;;;18.54;55.59;101900.88;5017005;28;69059;-77
2023/05/30 04:14:11;;;;;;;;;4.67;3.00;;;;;18.55;55.86;101901.78;5018124;28;66081;-78
2023/05/30 04:16:37;;;;;;;;;2.00;2.00;;;;;18.54;56.06;101908.03;5001480;28;45500;-77
2023/05/30 04:19:02;;;;;;;;;5.67;2.00;;;;;18.51;56.15;101913.38;5018029;28;45353;-77
2023/05/30 04:21:28;;;;;;;;;4.00;2.00;;;;;18.51;56.19;101910.69;5000026;28;46675;-77
2023/05/30 04:23:53;;;;;;;;;4.33;3.00;;;;;18.48;55.72;101908.03;5000129;28;45477;-77
2023/05/30 04:26:19;;;;;;;;;4.00;4.00;;;;;18.46;56.01;101913.38;5017229;28;62180;-77
2023/05/30 04:28:44;;;;;;;;;2.00;2.00;;;;;18.44;56.00;101920.53;5015934;28;45472;-77
2023/05/30 04:31:10;;;;;;;;;6.00;3.00;;;;;18.45;56.26;101918.75;5018082;28;45613;-77
2023/05/30 04:33:37;;;;;;;;;5.67;2.00;;;;;18.41;56.17;101915.19;5017860;28;45441;-78
2023/05/30 04:36:05;;;;;;;;;3.33;2.00;;;;;18.42;55.80;101926.78;5018243;28;45391;-77
2023/05/30 04:38:32;;;;;;;;;5.00;3.00;;;;;18.37;55.95;101928.56;5017568;28;45508;-78
2023/05/30 04:41:00;;;;;;;;;2.00;2.00;;;;;18.33;56.36;101933.97;5017552;28;47401;-79
2023/05/30 04:43:26;;;;;;;;;4.00;3.00;;;;;18.33;55.96;101925.94;5016953;28;45459;-77
2023/05/30 04:45:51;;;;;;;;;5.00;3.33;;;;;18.32;56.09;101937.53;4998181;28;45551;-78
2023/05/30 04:48:16;;;;;;;;;4.67;3.33;;;;;18.33;56.39;101938.41;5017291;28;45431;-77
2023/05/30 04:50:46;;;;;;;;;2.00;2.00;;;;;18.33;56.39;101946.44;5016266;28;46316;-77
2023/05/30 04:53:18;;;;;;;;;4.00;2.00;;;;;18.34;56.42;101953.56;5012622;28;45464;-79
2023/05/30 04:55:44;;;;;;;;;4.33;3.67;;;;;18.33;56.39;101957.13;5001909;28;45633;-76
2023/05/30 04:58:10;;;;;;;;;2.00;2.00;;;;;18.34;56.53;101950.88;5005332;28;45517;-81
2023/05/30 05:00:36;;;;;;;;;6.00;3.00;;;;;18.33;56.22;101944.66;5007271;28;46916;-78
2023/05/30 05:03:02;;;;;;;;;5.00;3.33;;;;;18.34;56.31;101948.22;5005944;28;45846;-78
2023/05/30 05:05:28;;;;;;;;;3.00;3.00;;;;;18.32;56.44;101945.56;5001809;28;45327;-79
2023/05/30 05:07:53;;;;;;;;;3.33;3.00;;;;;18.30;56.27;101944.66;5009245;28;45574;-79
2023/05/30 05:10:18;;;;;;;;;4.33;1.33;;;;;18.30;56.17;101949.09;5001813;28;70801;-76
2023/05/30 05:12:44;;;;;;;;;5.67;3.00;;;;;18.26;55.76;101953.56;5016382;28;45483;-78
2023/05/30 05:15:09;;;;;;;;;3.00;3.00;;;;;18.25;55.97;101951.78;5018979;28;55767;-80
2023/05/30 05:17:36;;;;;;;;;5.67;4.00;;;;;18.22;55.25;101953.59;5012237;28;45641;-82
2023/05/30 05:20:02;;;;;;;;;7.00;4.00;;;;;18.20;55.34;101950.91;4990827;28;47276;-79
2023/05/30 05:22:28;;;;;;;;;3.00;2.00;;;;;18.17;55.20;101945.59;4992726;28;45544;-80
2023/05/30 05:24:53;;;;;;;;;2.00;2.00;;;;;18.13;55.49;101951.84;5007724;28;60804;-82
2023/05/30 05:27:18;;;;;;;;;2.33;2.33;;;;;18.14;55.41;101958.06;5009155;28;45583;-80
2023/05/30 05:29:44;;;;;;;;;3.33;2.67;;;;;18.13;55.73;101953.63;4977275;28;47792;-83
2023/05/30 05:32:09;;;;;;;;;4.33;2.00;;;;;18.15;55.68;101962.50;5012684;28;45313;-79
2023/05/30 05:34:34;;;;;;;;;5.67;2.00;;;;;18.14;55.71;101952.72;4993446;28;50333;-80
2023/05/30 05:37:00;;;;;;;;;5.00;3.00;;;;;18.13;55.61;101962.53;5005023;28;45417;-79
2023/05/30 05:39:25;;;;;;;;;4.67;2.67;;;;;18.13;55.41;101956.28;4989793;28;56997;-79
2023/05/30 05:41:50;;;;;;;;;3.00;3.00;;;;;18.12;55.78;101957.19;5017359;28;60544;-77
2023/05/30 05:44:16;;;;;;;;;2.00;2.00;;;;;17.98;56.66;101957.19;5016159;28;56807;-77
2023/05/30 05:46:41;;;;;;;;;4.33;3.00;;;;;17.80;57.09;101961.69;5017845;28;61624;-76
2023/05/30 05:49:06;;;;;;;;;5.00;2.00;;;;;17.58;57.43;101967.91;5019848;28;50522;-77
2023/05/30 05:51:32;;;;;;;;;5.33;2.67;;;;;17.41;58.55;101970.53;5019047;28;55258;-76
2023/05/30 05:53:57;;;;;;;;;5.33;3.00;;;;;17.26;58.83;101967.88;5017363;28;45892;-76
2023/05/30 05:56:22;;;;;;;;;3.00;1.00;;;;;17.12;59.24;101972.28;5021717;28;62335;-77
2023/05/30 05:58:48;;;;;;;;;5.00;3.00;;;;;17.01;59.30;101969.59;5022219;28;66747;-77
2023/05/30 06:01:14;;;;;;;;;2.00;2.00;;;;;16.94;60.01;101970.47;5021044;28;54643;-78
2023/05/30 06:03:39;;;;;;;;;2.00;2.00;;;;;16.87;60.12;101971.31;5019869;28;45466;-76
2023/05/30 06:06:05;;;;;;;;;2.67;2.67;;;;;16.81;60.98;101977.50;5018828;28;45327;-78
2023/05/30 06:08:30;;;;;;;;;4.00;2.33;;;;;16.79;60.46;101978.41;5015470;28;45873;-77
2023/05/30 06:10:55;;;;;;;;;3.67;3.00;;;;;16.79;61.75;101967.75;5015883;28;45328;-79
2023/05/30 06:13:21;;;;;;;;;8.33;3.33;;;;;16.76;62.08;101969.50;5015675;28;62275;-77
2023/05/30 06:15:46;;;;;;;;;6.00;3.00;;;;;16.81;61.32;101964.19;5015568;28;45580;-76
2023/05/30 06:18:11;;;;;;;;;7.00;3.00;;;;;16.89;61.57;101975.78;5016953;28;46353;-76
2023/05/30 06:20:37;;;;;;;;;3.33;2.00;;;;;16.97;61.24;101973.13;5021323;28;61095;-76
2023/05/30 06:23:02;;;;;;;;;4.00;3.00;;;;;17.07;61.62;101976.72;5021729;28;45478;-76
2023/05/30 06:25:30;;;;;;;;;4.00;3.00;;;;;17.15;61.25;101986.53;5025997;28;45611;-77
2023/05/30 06:27:55;;;;;;;;;3.00;3.00;;;;;17.21;61.47;101981.19;5015126;28;46713;-76
2023/05/30 06:30:20;;;;;;;;;2.67;2.67;;;;;17.24;61.12;101989.19;5023962;28;45420;-77
2023/05/30 06:32:46;;;;;;;;;5.67;3.00;;;;;17.30;61.12;101974.97;5028353;28;62684;-77
2023/05/30 06:35:11;;;;;;;;;5.00;4.00;;;;;17.37;61.52;101979.44;5018011;28;54913;-77
2023/05/30 06:37:36;;;;;;;;;4.33;4.00;;;;;17.41;60.99;101974.97;5018646;28;69995;-76
2023/05/30 06:40:02;;;;;;;;;3.33;2.33;;;;;17.45;60.86;101972.31;5014814;28;57619;-77
2023/05/30 06:42:28;;;;;;;;;5.00;2.33;;;;;17.50;60.93;101969.66;5014441;28;45556;-76
2023/05/30 06:44:53;;;;;;;;;8.67;3.67;;;;;17.59;61.85;101972.34;5014735;28;45444;-76
2023/05/30 06:47:18;;;;;;;;;6.00;3.00;;;;;17.65;61.38;101980.34;5016058;28;60197;-76
2023/05/30 06:49:44;;;;;;;;;2.00;2.00;;;;;17.71;61.23;101976.78;5016446;28;59723;-79
2023/05/30 06:52:09;;;;;;;;;6.67;3.67;;;;;17.76;61.19;101975.94;5016698;28;45356;-79
2023/05/30 06:54:34;;;;;;;;;4.00;4.00;;;;;17.83;60.92;101966.13;5018616;28;45320;-79
2023/05/30 06:57:02;;;;;;;;;3.67;2.00;;;;;17.94;60.51;101968.78;5016756;28;46416;-79
2023/05/30 06:59:28;;;;;;;;;7.67;4.00;;;;;18.00;60.67;101974.13;4999306;28;45386;-79
2023/05/30 07:01:54;;;;;;;;;4.00;3.33;;;;;18.06;60.67;101972.34;5017349;28;45427;-81
2023/05/30 07:04:19;;;;;;;;;3.67;3.33;;;;;18.14;59.96;101979.44;5015153;28;45464;-80
2023/05/30 07:06:45;;;;;;;;;3.00;3.00;;;;;18.23;60.33;101985.69;5014483;28;45652;-77
2023/05/30 07:09:11;;;;;;;;;3.00;3.00;;;;;18.30;60.47;101981.19;4997268;28;45399;-79
2023/05/30 07:11:36;;;;;;;;;4.00;3.00;;;;;18.39;60.10;101986.53;4998490;28;45332;-76
2023/05/30 07:14:01;;;;;;;;;4.33;4.00;;;;;18.45;59.77;101980.28;5013649;28;63915;-77
2023/05/30 07:16:27;;;;;;;;;5.33;2.67;;;;;18.54;60.15;101983.81;5014015;28;59290;-79
2023/05/30 07:18:52;;;;;;;;;4.00;4.00;;;;;18.63;59.92;101976.63;5015159;28;61391;-77
2023/05/30 07:21:17;;;;;;;;;5.33;2.00;;;;;18.70;59.43;101975.75;5013121;28;45481;-79
2023/05/30 07:23:43;;;;;;;;;5.67;4.00;;;;;18.76;59.71;101984.66;5012725;28;60264;-77
2023/05/30 07:26:08;;;;;;;;;3.00;2.00;;;;;18.81;59.05;101977.50;5014370;28;48595;-79
2023/05/30 07:28:33;;;;;;;;;6.00;3.00;;;;;18.85;58.88;101981.00;4999030;28;58741;-77
2023/05/30 07:30:59;;;;;;;;;5.00;3.00;;;;;18.91;59.24;101975.66;5018195;28;45329;-76
2023/05/30 07:33:24;;;;;;;;;4.33;2.67;;;;;18.95;59.20;101972.03;5017991;28;45498;-80
2023/05/30 07:35:49;;;;;;;;;4.00;2.00;;;;;18.98;59.00;101966.69;5017968;28;63819;-76
2023/05/30 07:38:15;;;;;;;;;5.33;3.67;;;;;19.05;58.72;101970.22;5016874;28;66245;-77
2023/05/30 07:40:40;;;;;;;;;7.33;4.00;;;;;19.11;58.73;101972.84;5017549;28;45250;-78
2023/05/30 07:43:06;;;;;;;;;7.67;3.00;;;;;19.15;58.74;101977.28;5018466;28;45245;-78
2023/05/30 07:45:31;;;;;;;;;3.33;2.00;;;;;19.20;58.85;101977.25;5018803;28;45798;-78
2023/05/30 07:47:56;;;;;;;;;5.00;3.00;;;;;19.23;58.76;101977.22;5018676;28;45437;-78
2023/05/30 07:50:21;;;;;;;;;2.33;2.33;;;;;19.24;58.63;101985.28;4999726;28;56297;-79
2023/05/30 07:52:47;;;;;;;;;2.33;2.33;;;;;19.30;58.32;101987.03;5017608;28;60901;-79
2023/05/30 07:55:12;;;;;;;;;2.33;2.33;;;;;19.32;58.64;101978.06;5018026;28;66181;-76
2023/05/30 07:57:38;;;;;;;;;5.00;3.67;;;;;19.35;58.80;101983.41;5017247;28;63611;-78
2023/05/30 08:00:08;;;;;;;;;4.67;1.33;;;;;19.39;58.82;101981.63;5016967;28;45494;-77
2023/05/30 08:02:34;;;;;;;;;3.33;2.33;;;;;19.46;58.46;101988.69;5018609;28;46297;-79
2023/05/30 08:04:59;;;;;;;;;5.33;3.00;;;;;19.52;58.30;101988.66;5018403;28;46336;-79
2023/05/30 08:07:24;;;;;;;;;3.67;3.67;;;;;19.56;58.85;101982.38;5018024;28;50800;-77
2023/05/30 08:09:50;;;;;;;;;7.67;3.67;;;;;19.63;58.98;101983.22;5000421;28;45294;-76
2023/05/30 08:12:17;;;;;;;;;1.33;1.33;;;;;19.71;58.68;101993.88;5017995;28;45202;-78
2023/05/30 08:14:42;;;;;;;;;2.67;2.67;;;;;19.78;58.23;101991.16;5097003;22;47767;-78
2023/05/30 08:17:09;;;;;;;;;2.67;2.67;;;;;19.83;57.89;101996.47;4977995;28;62846;-77
2023/05/30 08:19:35;;;;;;;;;3.67;2.00;;;;;19.88;57.82;102000.91;4978420;28;45468;-78
2023/05/30 08:22:00;;;;;;;;;7.00;3.00;;;;;19.94;57.83;101996.38;4977458;28;45342;-79
2023/05/30 08:24:28;;;;;;;;;4.00;2.33;;;;;20.00;58.34;101999.00;4974474;28;67400;-79
2023/05/30 08:26:53;;;;;;;;;4.33;3.00;;;;;20.03;58.21;101993.63;4975286;28;45520;-80
2023/05/30 08:29:19;;;;;;;;;5.00;2.33;;;;;20.07;57.37;101987.31;4978107;28;45245;-77
2023/05/30 08:31:45;;;;;;;;;4.00;4.00;;;;;20.09;57.84;101991.75;4977815;28;45279;-77
2023/05/30 08:34:10;;;;;;;;;4.33;1.67;;;;;20.15;57.68;101991.69;4958755;28;69865;-79
2023/05/30 08:36:36;;;;;;;;;2.00;2.00;;;;;20.22;57.64;101997.88;4977277;28;45409;-77
2023/05/30 08:39:02;;;;;;;;;4.33;3.33;;;;;20.28;57.76;101986.19;4960746;28;45531;-77
2023/05/30 08:41:27;;;;;;;;;3.00;3.00;;;;;20.33;57.68;101987.03;4978483;28;45616;-77
2023/05/30 08:43:52;;;;;;;;;4.33;1.67;;;;;20.37;57.44;101983.41;4977129;28;69899;-77
2023/05/30 08:46:18;;;;;;;;;3.67;2.00;;;;;20.44;57.84;101994.97;4977811;28;67372;-76
2023/05/30 08:48:44;;;;;;;;;2.67;1.33;;;;;20.47;57.79;101978.88;4978287;28;45492;-77
2023/05/30 08:51:12;;;;;;;;;4.00;3.00;;;;;20.53;58.02;101984.16;4978727;28;45342;-80
2023/05/30 08:53:42;;;;;;;;;3.00;3.00;;;;;20.57;57.25;101972.50;4959811;28;45520;-78
2023/05/30 08:56:11;;;;;;;;;5.00;2.00;;;;;20.62;57.60;101981.38;4976935;28;45267;-81
2023/05/30 08:58:40;;;;;;;;;4.00;2.00;;;;;20.65;57.41;101974.16;4960683;28;45465;-77
2023/05/30 09:01:06;;;;;;;;;5.00;3.00;;;;;20.65;57.00;101967.91;4978099;28;45552;-77
2023/05/30 09:03:34;;;;;;;;;2.67;2.67;;;;;20.69;57.64;101971.44;4957233;28;69238;-77
2023/05/30 09:06:00;;;;;;;;;3.67;2.00;;;;;20.76;57.14;101971.34;4975628;28;70379;-77
2023/05/30 09:08:27;;;;;;;;;4.00;3.00;;;;;20.79;57.51;101965.06;4977365;28;45393;-77
2023/05/30 09:10:53;;;;;;;;;10.00;3.00;;;;;20.84;57.21;101973.94;4977308;28;45429;-79
2023/05/30 09:13:20;;;;;;;;;3.00;3.00;;;;;20.88;57.01;101971.19;4977844;28;45453;-78
2023/05/30 09:15:45;;;;;;;;;2.33;2.33;;;;;20.93;57.30;101969.34;4977613;28;45565;-78
2023/05/30 09:18:11;;;;;;;;;2.00;2.00;;;;;20.97;57.16;101963.91;4977399;28;45567;-79
2023/05/30 09:20:40;;;;;;;;;2.00;2.00;;;;;21.01;56.69;101973.72;4960495;28;45342;-77
2023/05/30 09:23:06;;;;;;;;;4.33;4.33;;;;;21.01;56.80;101957.59;4974499;28;46763;-77
2023/05/30 09:25:47;;;;;;;;;4.33;2.00;;;;;21.03;56.49;101956.66;4978211;28;45342;-77
2023/05/30 09:28:13;;;;;;;;;2.67;2.67;;;;;21.10;56.37;101960.16;4976491;28;45327;-78
2023/05/30 09:30:58;;;;;;;;;3.00;3.00;;;;;21.14;56.44;101957.38;4977853;28;45401;-79
2023/05/30 09:33:25;;;;;;;;;3.00;1.67;;;;;21.19;56.22;101963.56;4970220;28;47355;-77
2023/05/30 09:35:53;;;;;;;;;3.33;2.00;;;;;21.23;56.56;101961.72;4960023;28;45425;-78
2023/05/30 09:38:21;;;;;;;;;6.00;2.00;;;;;21.28;56.56;101964.34;4974920;28;45278;-76
2023/05/30 09:40:50;;;;;;;;;3.00;2.00;;;;;21.31;56.15;101959.88;4977423;28;45208;-77
2023/05/30 09:43:29;;;;;;;;;1.00;1.00;;;;;21.33;55.74;101952.66;4976291;28;46158;-79
2023/05/30 09:45:54;;;;;;;;;2.00;2.00;;;;;21.36;56.19;101951.69;4958361;28;45302;-80
2023/05/30 09:48:20;;;;;;;;;3.33;3.00;;;;;21.42;56.41;101962.38;4977405;28;45300;-80
2023/05/30 09:50:48;;;;;;;;;6.00;2.00;;;;;21.46;55.77;101956.03;4975811;28;62337;-78
2023/05/30 09:53:13;;;;;;;;;3.00;1.33;;;;;21.53;56.74;101952.34;4959516;28;46290;-77
2023/05/30 09:55:38;;;;;;;;;3.33;1.00;;;;;21.61;55.82;101949.50;4976547;28;68005;-77
2023/05/30 09:58:04;;;;;;;;;1.67;1.00;;;;;21.65;55.62;101953.94;4976815;28;58993;-77
2023/05/30 10:00:29;;;;;;;;;3.33;2.00;;;;;21.72;56.14;101952.91;4976527;28;45436;-79
2023/05/30 10:02:56;;;;;;;;;2.00;1.00;;;;;21.78;55.75;101966.22;4977485;28;46799;-78
2023/05/30 10:05:28;;;;;;;;;3.33;2.00;;;;;21.81;55.51;101960.81;4974312;28;45313;-80
2023/05/30 10:07:57;;;;;;;;;2.00;2.00;;;;;21.87;55.68;101965.19;4970773;28;45386;-81
2023/05/30 10:10:23;;;;;;;;;3.00;2.00;;;;;21.92;55.50;101952.56;4973583;28;45667;-77
2023/05/30 10:12:51;;;;;;;;;3.00;1.67;;;;;21.99;55.71;101959.59;4976838;28;46868;-79
2023/05/30 10:15:18;;;;;;;;;4.00;3.00;;;;;22.07;55.46;101967.53;4978956;28;45503;-82
2023/05/30 10:17:56;;;;;;;;;3.00;2.00;;;;;22.13;54.97;101957.56;4958377;28;45433;-83
2023/05/30 10:20:24;;;;;;;;;5.00;3.33;;;;;22.17;55.23;101970.06;4974916;28;46406;-86
2023/05/30 10:22:52;;;;;;;;;5.00;2.00;;;;;22.21;54.11;101949.34;4955027;28;47381;-81
2023/05/30 10:25:18;;;;;;;;;6.00;2.33;;;;;22.23;54.26;101952.91;4958802;28;45472;-83
2023/05/30 10:27:55;;;;;;;;;3.33;2.00;;;;;22.26;54.82;101952.81;4953731;28;45475;-80
2023/05/30 10:30:29;;;;;;;;;2.00;2.00;;;;;22.31;54.65;101948.25;4956748;28;45528;-85
2023/05/30 10:33:04;;;;;;;;;6.33;2.00;;;;;22.39;54.39;101956.19;4974063;28;47542;-80
2023/05/30 10:35:30;;;;;;;;;3.67;2.00;;;;;22.44;54.63;101955.16;4973715;28;45452;-80
2023/05/30 10:37:57;;;;;;;;;1.67;1.00;;;;;22.51;54.65;101944.28;4957093;28;45381;-84
2023/05/30 10:40:52;;;;;;;;;3.00;1.33;;;;;22.58;54.70;101941.41;4957507;28;46004;-80
2023/05/30 10:43:39;;;;;;;;;2.00;2.00;;;;;22.65;54.37;101939.50;4957977;28;46505;-80
2023/05/30 10:46:18;;;;;;;;;4.00;2.00;;;;;22.70;53.72;101941.16;4955105;28;45624;-82
2023/05/30 10:48:44;;;;;;;;;2.33;2.33;;;;;22.72;53.67;101939.31;4975415;28;45460;-78
2023/05/30 10:51:11;;;;;;;;;2.67;2.67;;;;;22.80;53.48;101943.63;4973019;28;45470;-81
2023/05/30 10:53:41;;;;;;;;;3.67;2.67;;;;;22.84;53.60;101932.75;4969250;28;45799;-78
2023/05/30 10:56:28;;;;;;;;;3.00;1.00;;;;;22.91;53.04;101934.44;4963956;28;45282;-77
2023/05/30 10:58:54;;;;;;;;;3.67;3.00;;;;;22.96;52.97;101926.28;4968677;28;45528;-78
2023/05/30 11:01:32;;;;;;;;;2.00;2.00;;;;;23.01;53.12;101924.34;4967651;28;45434;-79
2023/05/30 11:04:05;;;;;;;;;3.00;3.00;;;;;23.09;53.22;101927.75;4972991;28;47608;-80
2023/05/30 11:06:43;;;;;;;;;3.33;2.00;;;;;23.20;53.36;101911.31;4974418;28;45425;-79
2023/05/30 11:09:16;;;;;;;;;3.33;2.00;;;;;23.29;52.94;101916.50;4961553;28;45400;-79
2023/05/30 11:11:46;;;;;;;;;4.67;2.00;;;;;23.36;52.68;101914.53;4973052;28;45403;-79
2023/05/30 11:14:13;;;;;;;;;1.00;1.00;;;;;23.42;52.39;101909.84;4957358;28;47991;-78
2023/05/30 11:16:56;;;;;;;;;1.00;1.00;;;;;23.50;51.85;101910.56;4976686;28;45396;-78
2023/05/30 11:19:35;;;;;;;;;3.00;3.00;;;;;23.56;52.30;101908.63;4976095;28;45364;-78
2023/05/30 11:22:02;;;;;;;;;3.33;2.00;;;;;23.62;50.93;101903.97;4976743;28;45441;-80
2023/05/30 11:24:29;;;;;;;;;3.00;2.00;;;;;23.67;50.65;101903.88;4977741;28;46451;-78